sensor_id;sensor_type;location;lat;lon;timestamp;pressure;altitude;pressure_sealevel;temperature;humidity
54308;BME280;40208;39.778;2.710;2023-10-09T00:00:30;102239.09;;;19.57;100.00
54308;BME280;40208;39.778;2.710;2023-10-09T00:03:24;102291.41;;;19.99;100.00
54308;BME280;40208;39.778;2.710;2023-10-09T00:06:12;102209.69;;;19.54;100.00
54308;BME280;40208;39.778;2.710;2023-10-09T00:09:01;102243.63;;;19.57;100.00
54308;BME280;40208;39.778;2.710;2023-10-09T00:11:56;102289.38;;;19.88;100.00
54308;BME280;40208;39.778;2.710;2023-10-09T00:14:42;102290.72;;;19.81;100.00
54308;BME280;40208;39.778;2.710;2023-10-09T00:17:32;102215.50;;;19.32;100.00
54308;BME280;40208;39.778;2.710;2023-10-09T00:20:17;102234.22;;;19.34;100.00
54308;BME280;40208;39.778;2.710;2023-10-09T00:23:04;102294.03;;;19.55;100.00
54308;BME280;40208;39.778;2.710;2023-10-09T00:25:56;102258.03;;;19.25;100.00
54308;BME280;40208;39.778;2.710;2023-10-09T00:28:59;102284.25;;;19.38;100.00
54308;BME280;40208;39.778;2.710;2023-10-09T00:31:50;102294.50;;;19.31;100.00
54308;BME280;40208;39.778;2.710;2023-10-09T00:34:35;102204.25;;;18.62;100.00
54308;BME280;40208;39.778;2.710;2023-10-09T00:37:24;102183.59;;;18.62;100.00
54308;BME280;40208;39.778;2.710;2023-10-09T00:40:11;102251.97;;;19.22;100.00
54308;BME280;40208;39.778;2.710;2023-10-09T00:43:05;102215.19;;;19.06;100.00
54308;BME280;40208;39.778;2.710;2023-10-09T00:45:59;102232.38;;;19.20;100.00
54308;BME280;40208;39.778;2.710;2023-10-09T00:49:09;102234.72;;;19.40;100.00
54308;BME280;40208;39.778;2.710;2023-10-09T00:51:55;102269.06;;;19.67;100.00
54308;BME280;40208;39.778;2.710;2023-10-09T00:54:40;102166.25;;;19.00;100.00
54308;BME280;40208;39.778;2.710;2023-10-09T00:57:27;102201.19;;;19.16;100.00
54308;BME280;40208;39.778;2.710;2023-10-09T01:00:13;102262.44;;;19.42;100.00
54308;BME280;40208;39.778;2.710;2023-10-09T01:03:17;102209.28;;;19.16;100.00
54308;BME280;40208;39.778;2.710;2023-10-09T01:06:03;102287.25;;;19.47;100.00
54308;BME280;40208;39.778;2.710;2023-10-09T01:08:53;102177.13;;;18.98;100.00
54308;BME280;40208;39.778;2.710;2023-10-09T01:11:51;102271.53;;;19.56;100.00
54308;BME280;40208;39.778;2.710;2023-10-09T01:14:45;102273.53;;;19.68;100.00
54308;BME280;40208;39.778;2.710;2023-10-09T01:17:31;102215.78;;;19.12;100.00
54308;BME280;40208;39.778;2.710;2023-10-09T01:20:22;102203.09;;;19.14;100.00
54308;BME280;40208;39.778;2.710;2023-10-09T01:23:14;102236.59;;;19.24;100.00
54308;BME280;40208;39.778;2.710;2023-10-09T01:26:00;102251.31;;;19.48;100.00
54308;BME280;40208;39.778;2.710;2023-10-09T01:28:45;102261.94;;;19.66;100.00
54308;BME280;40208;39.778;2.710;2023-10-09T01:31:30;102225.44;;;19.46;100.00
54308;BME280;40208;39.778;2.710;2023-10-09T01:34:19;102255.19;;;19.59;100.00
54308;BME280;40208;39.778;2.710;2023-10-09T01:37:09;102252.84;;;19.53;100.00
54308;BME280;40208;39.778;2.710;2023-10-09T01:40:03;102248.34;;;19.53;100.00
54308;BME280;40208;39.778;2.710;2023-10-09T01:43:20;102092.03;;;18.34;100.00
54308;BME280;40208;39.778;2.710;2023-10-09T01:46:05;102257.31;;;19.38;100.00
54308;BME280;40208;39.778;2.710;2023-10-09T01:48:50;102168.28;;;18.80;100.00
54308;BME280;40208;39.778;2.710;2023-10-09T01:51:38;102177.53;;;18.91;100.00
54308;BME280;40208;39.778;2.710;2023-10-09T01:54:23;102249.19;;;19.23;100.00
54308;BME280;40208;39.778;2.710;2023-10-09T01:57:22;102203.66;;;19.04;100.00
54308;BME280;40208;39.778;2.710;2023-10-09T02:00:08;102155.56;;;18.67;100.00
54308;BME280;40208;39.778;2.710;2023-10-09T02:02:52;102208.50;;;18.98;100.00
54308;BME280;40208;39.778;2.710;2023-10-09T02:05:38;102233.31;;;19.03;100.00
54308;BME280;40208;39.778;2.710;2023-10-09T02:08:24;102160.59;;;18.89;100.00
54308;BME280;40208;39.778;2.710;2023-10-09T02:11:20;102242.22;;;19.35;100.00
54308;BME280;40208;39.778;2.710;2023-10-09T02:14:21;102246.41;;;19.25;100.00
54308;BME280;40208;39.778;2.710;2023-10-09T02:17:08;102244.59;;;19.25;100.00
54308;BME280;40208;39.778;2.710;2023-10-09T02:19:54;101986.41;;;17.86;100.00
54308;BME280;40208;39.778;2.710;2023-10-09T02:22:39;102238.72;;;19.49;100.00
54308;BME280;40208;39.778;2.710;2023-10-09T02:25:24;102241.44;;;19.33;100.00
54308;BME280;40208;39.778;2.710;2023-10-09T02:28:14;102073.47;;;18.45;100.00
54308;BME280;40208;39.778;2.710;2023-10-09T02:31:11;102239.50;;;19.51;100.00
54308;BME280;40208;39.778;2.710;2023-10-09T02:33:56;102232.81;;;19.42;100.00
54308;BME280;40208;39.778;2.710;2023-10-09T02:36:41;102246.03;;;19.31;100.00
54308;BME280;40208;39.778;2.710;2023-10-09T02:39:33;102095.41;;;18.53;100.00
54308;BME280;40208;39.778;2.710;2023-10-09T02:42:21;102230.88;;;19.14;100.00
54308;BME280;40208;39.778;2.710;2023-10-09T02:45:11;102177.44;;;18.92;100.00
54308;BME280;40208;39.778;2.710;2023-10-09T02:48:00;102184.28;;;19.14;100.00
54308;BME280;40208;39.778;2.710;2023-10-09T02:50:53;102245.97;;;19.33;100.00
54308;BME280;40208;39.778;2.710;2023-10-09T02:53:38;102174.22;;;18.70;100.00
54308;BME280;40208;39.778;2.710;2023-10-09T02:56:26;102188.22;;;18.60;100.00
54308;BME280;40208;39.778;2.710;2023-10-09T02:59:33;102246.81;;;18.87;100.00
54308;BME280;40208;39.778;2.710;2023-10-09T03:02:18;102208.69;;;18.63;100.00
54308;BME280;40208;39.778;2.710;2023-10-09T03:05:03;102253.28;;;19.15;100.00
54308;BME280;40208;39.778;2.710;2023-10-09T03:07:48;102142.84;;;18.54;100.00
54308;BME280;40208;39.778;2.710;2023-10-09T03:10:33;102247.09;;;19.28;100.00
54308;BME280;40208;39.778;2.710;2023-10-09T03:13:18;102248.94;;;19.12;100.00
54308;BME280;40208;39.778;2.710;2023-10-09T03:16:03;102159.84;;;18.71;100.00
54308;BME280;40208;39.778;2.710;2023-10-09T03:18:50;102250.75;;;19.27;100.00
54308;BME280;40208;39.778;2.710;2023-10-09T03:21:35;102205.41;;;19.05;100.00
54308;BME280;40208;39.778;2.710;2023-10-09T03:24:20;102245.69;;;19.37;100.00
54308;BME280;40208;39.778;2.710;2023-10-09T03:27:07;102201.72;;;19.06;100.00
54308;BME280;40208;39.778;2.710;2023-10-09T03:29:52;102210.91;;;19.18;100.00
54308;BME280;40208;39.778;2.710;2023-10-09T03:32:37;102087.06;;;18.10;100.00
54308;BME280;40208;39.778;2.710;2023-10-09T03:35:23;102085.38;;;18.25;100.00
54308;BME280;40208;39.778;2.710;2023-10-09T03:38:11;102247.94;;;18.99;100.00
54308;BME280;40208;39.778;2.710;2023-10-09T03:40:56;102245.72;;;18.74;100.00
54308;BME280;40208;39.778;2.710;2023-10-09T03:43:41;102263.38;;;18.95;100.00
54308;BME280;40208;39.778;2.710;2023-10-09T03:46:26;102258.84;;;18.96;100.00
54308;BME280;40208;39.778;2.710;2023-10-09T03:49:17;102258.84;;;19.12;100.00
54308;BME280;40208;39.778;2.710;2023-10-09T03:52:07;102252.88;;;19.06;100.00
54308;BME280;40208;39.778;2.710;2023-10-09T03:54:54;102175.38;;;18.50;100.00
54308;BME280;40208;39.778;2.710;2023-10-09T03:57:40;102218.53;;;18.80;100.00
54308;BME280;40208;39.778;2.710;2023-10-09T04:00:28;102250.59;;;19.15;100.00
54308;BME280;40208;39.778;2.710;2023-10-09T04:03:13;102181.69;;;18.64;100.00
54308;BME280;40208;39.778;2.710;2023-10-09T04:05:59;102238.22;;;18.96;100.00
54308;BME280;40208;39.778;2.710;2023-10-09T04:08:44;102248.25;;;19.09;100.00
54308;BME280;40208;39.778;2.710;2023-10-09T04:11:33;102250.03;;;18.94;100.00
54308;BME280;40208;39.778;2.710;2023-10-09T04:14:18;102263.22;;;18.98;100.00
54308;BME280;40208;39.778;2.710;2023-10-09T04:17:11;102246.88;;;18.85;100.00
54308;BME280;40208;39.778;2.710;2023-10-09T04:20:07;102255.88;;;18.69;100.00
54308;BME280;40208;39.778;2.710;2023-10-09T04:23:04;102180.75;;;18.00;100.00
54308;BME280;40208;39.778;2.710;2023-10-09T04:25:50;102241.69;;;18.33;100.00
54308;BME280;40208;39.778;2.710;2023-10-09T04:28:36;102179.31;;;18.27;100.00
54308;BME280;40208;39.778;2.710;2023-10-09T04:31:21;102211.06;;;18.36;100.00
54308;BME280;40208;39.778;2.710;2023-10-09T04:34:16;102118.03;;;18.01;100.00
54308;BME280;40208;39.778;2.710;2023-10-09T04:37:06;102216.41;;;18.53;100.00
54308;BME280;40208;39.778;2.710;2023-10-09T04:40:00;102123.16;;;17.73;100.00
54308;BME280;40208;39.778;2.710;2023-10-09T04:42:58;102265.59;;;18.71;100.00
54308;BME280;40208;39.778;2.710;2023-10-09T04:45:43;102264.97;;;18.66;100.00
54308;BME280;40208;39.778;2.710;2023-10-09T04:48:27;102265.47;;;18.57;100.00
54308;BME280;40208;39.778;2.710;2023-10-09T04:51:22;102194.84;;;18.21;100.00
54308;BME280;40208;39.778;2.710;2023-10-09T04:54:19;102180.53;;;18.21;100.00
54308;BME280;40208;39.778;2.710;2023-10-09T04:57:23;102088.06;;;17.43;100.00
54308;BME280;40208;39.778;2.710;2023-10-09T05:00:17;102191.66;;;17.97;100.00
54308;BME280;40208;39.778;2.710;2023-10-09T05:03:11;102170.22;;;18.13;100.00
54308;BME280;40208;39.778;2.710;2023-10-09T05:05:57;102265.31;;;18.44;100.00
54308;BME280;40208;39.778;2.710;2023-10-09T05:09:04;102203.03;;;18.02;100.00
54308;BME280;40208;39.778;2.710;2023-10-09T05:11:52;102217.56;;;18.16;100.00
54308;BME280;40208;39.778;2.710;2023-10-09T05:14:37;102264.16;;;18.48;100.00
54308;BME280;40208;39.778;2.710;2023-10-09T05:17:30;102274.59;;;18.54;100.00
54308;BME280;40208;39.778;2.710;2023-10-09T05:20:18;102233.13;;;18.09;100.00
54308;BME280;40208;39.778;2.710;2023-10-09T05:23:12;102152.53;;;17.41;100.00
54308;BME280;40208;39.778;2.710;2023-10-09T05:26:08;102273.00;;;18.01;100.00
54308;BME280;40208;39.778;2.710;2023-10-09T05:32:05;102272.22;;;18.48;100.00
54308;BME280;40208;39.778;2.710;2023-10-09T05:34:50;102182.94;;;17.94;100.00
54308;BME280;40208;39.778;2.710;2023-10-09T05:38:01;102235.38;;;18.34;100.00
54308;BME280;40208;39.778;2.710;2023-10-09T05:40:49;102276.50;;;18.52;100.00
54308;BME280;40208;39.778;2.710;2023-10-09T05:43:38;102285.97;;;18.59;100.00
54308;BME280;40208;39.778;2.710;2023-10-09T05:46:41;102201.09;;;17.89;100.00
54308;BME280;40208;39.778;2.710;2023-10-09T05:49:46;102257.63;;;18.36;100.00
54308;BME280;40208;39.778;2.710;2023-10-09T05:52:31;102250.09;;;18.27;100.00
54308;BME280;40208;39.778;2.710;2023-10-09T05:55:23;102281.94;;;18.17;100.00
54308;BME280;40208;39.778;2.710;2023-10-09T05:58:08;102222.44;;;17.92;100.00
54308;BME280;40208;39.778;2.710;2023-10-09T06:01:11;102188.69;;;17.86;100.00
54308;BME280;40208;39.778;2.710;2023-10-09T06:04:14;102284.19;;;18.09;100.00
54308;BME280;40208;39.778;2.710;2023-10-09T06:07:03;102244.03;;;17.71;100.00
54308;BME280;40208;39.778;2.710;2023-10-09T06:09:56;102257.78;;;18.00;100.00
54308;BME280;40208;39.778;2.710;2023-10-09T06:12:41;102287.50;;;18.14;100.00
54308;BME280;40208;39.778;2.710;2023-10-09T06:15:28;102159.56;;;17.26;100.00
54308;BME280;40208;39.778;2.710;2023-10-09T06:18:48;102243.75;;;17.95;100.00
54308;BME280;40208;39.778;2.710;2023-10-09T06:21:54;102263.66;;;17.91;100.00
54308;BME280;40208;39.778;2.710;2023-10-09T06:24:56;102299.53;;;17.90;100.00
54308;BME280;40208;39.778;2.710;2023-10-09T06:27:44;102296.91;;;17.88;100.00
54308;BME280;40208;39.778;2.710;2023-10-09T06:30:37;102285.69;;;17.97;100.00
54308;BME280;40208;39.778;2.710;2023-10-09T06:33:29;102135.16;;;16.96;100.00
54308;BME280;40208;39.778;2.710;2023-10-09T06:36:13;102320.16;;;17.89;100.00
54308;BME280;40208;39.778;2.710;2023-10-09T06:39:02;102311.53;;;18.00;100.00
54308;BME280;40208;39.778;2.710;2023-10-09T06:42:04;102317.31;;;17.92;100.00
54308;BME280;40208;39.778;2.710;2023-10-09T06:45:15;102323.78;;;17.88;100.00
54308;BME280;40208;39.778;2.710;2023-10-09T06:48:03;102182.06;;;17.06;100.00
54308;BME280;40208;39.778;2.710;2023-10-09T06:51:14;102317.38;;;17.91;100.00
54308;BME280;40208;39.778;2.710;2023-10-09T06:54:25;102313.63;;;17.76;100.00
54308;BME280;40208;39.778;2.710;2023-10-09T06:57:11;102252.00;;;17.38;100.00
54308;BME280;40208;39.778;2.710;2023-10-09T07:00:03;102098.25;;;16.47;100.00
54308;BME280;40208;39.778;2.710;2023-10-09T07:03:06;102333.09;;;17.81;100.00
54308;BME280;40208;39.778;2.710;2023-10-09T07:06:05;102240.53;;;17.34;100.00
54308;BME280;40208;39.778;2.710;2023-10-09T07:08:54;102242.78;;;17.44;100.00
54308;BME280;40208;39.778;2.710;2023-10-09T07:12:00;102337.91;;;18.09;100.00
54308;BME280;40208;39.778;2.710;2023-10-09T07:14:54;102328.44;;;18.02;100.00
54308;BME280;40208;39.778;2.710;2023-10-09T07:17:38;102308.22;;;17.95;100.00
54308;BME280;40208;39.778;2.710;2023-10-09T07:20:23;102351.50;;;18.23;100.00
54308;BME280;40208;39.778;2.710;2023-10-09T07:23:37;102351.81;;;18.35;100.00
54308;BME280;40208;39.778;2.710;2023-10-09T07:26:32;102314.53;;;18.11;100.00
54308;BME280;40208;39.778;2.710;2023-10-09T07:29:31;102319.00;;;18.28;100.00
54308;BME280;40208;39.778;2.710;2023-10-09T07:32:32;102301.06;;;18.29;100.00
54308;BME280;40208;39.778;2.710;2023-10-09T07:35:17;102257.00;;;18.15;100.00
54308;BME280;40208;39.778;2.710;2023-10-09T07:38:24;102323.44;;;18.62;100.00
54308;BME280;40208;39.778;2.710;2023-10-09T07:41:20;102314.34;;;18.65;100.00
54308;BME280;40208;39.778;2.710;2023-10-09T07:44:06;102262.00;;;18.39;100.00
54308;BME280;40208;39.778;2.710;2023-10-09T07:47:03;102354.50;;;19.01;100.00
54308;BME280;40208;39.778;2.710;2023-10-09T07:50:07;102315.44;;;18.94;100.00
54308;BME280;40208;39.778;2.710;2023-10-09T07:52:57;102340.63;;;19.25;100.00
54308;BME280;40208;39.778;2.710;2023-10-09T07:55:59;102364.56;;;19.45;100.00
54308;BME280;40208;39.778;2.710;2023-10-09T07:58:50;102314.56;;;19.25;100.00
54308;BME280;40208;39.778;2.710;2023-10-09T08:01:44;102355.97;;;19.55;100.00
54308;BME280;40208;39.778;2.710;2023-10-09T08:04:39;102349.19;;;19.63;100.00
54308;BME280;40208;39.778;2.710;2023-10-09T08:07:33;102314.19;;;19.47;100.00
54308;BME280;40208;39.778;2.710;2023-10-09T08:10:21;102353.63;;;19.80;100.00
54308;BME280;40208;39.778;2.710;2023-10-09T08:13:06;102245.63;;;19.23;100.00
54308;BME280;40208;39.778;2.710;2023-10-09T08:16:09;102337.09;;;19.86;100.00
54308;BME280;40208;39.778;2.710;2023-10-09T08:19:05;102327.50;;;19.97;100.00
54308;BME280;40208;39.778;2.710;2023-10-09T08:22:29;102271.75;;;19.67;100.00
54308;BME280;40208;39.778;2.710;2023-10-09T08:25:14;102368.41;;;20.33;100.00
54308;BME280;40208;39.778;2.710;2023-10-09T08:28:10;102295.19;;;20.11;100.00
54308;BME280;40208;39.778;2.710;2023-10-09T08:31:01;102291.41;;;20.13;100.00
54308;BME280;40208;39.778;2.710;2023-10-09T08:34:03;102366.34;;;20.67;100.00
54308;BME280;40208;39.778;2.710;2023-10-09T08:36:48;102297.03;;;20.39;100.00
54308;BME280;40208;39.778;2.710;2023-10-09T08:39:36;102360.75;;;20.85;100.00
54308;BME280;40208;39.778;2.710;2023-10-09T08:42:21;102323.16;;;20.67;100.00
54308;BME280;40208;39.778;2.710;2023-10-09T08:45:09;102276.81;;;20.46;100.00
54308;BME280;40208;39.778;2.710;2023-10-09T08:47:59;102261.69;;;20.44;100.00
54308;BME280;40208;39.778;2.710;2023-10-09T08:50:49;102351.19;;;21.08;100.00
54308;BME280;40208;39.778;2.710;2023-10-09T08:53:34;102293.00;;;20.75;100.00
54308;BME280;40208;39.778;2.710;2023-10-09T08:56:21;102342.78;;;21.12;100.00
54308;BME280;40208;39.778;2.710;2023-10-09T08:59:09;102344.78;;;21.09;100.00
54308;BME280;40208;39.778;2.710;2023-10-09T09:01:55;102321.22;;;20.98;100.00
54308;BME280;40208;39.778;2.710;2023-10-09T09:04:43;102368.59;;;21.31;100.00
54308;BME280;40208;39.778;2.710;2023-10-09T09:07:30;102316.72;;;21.11;100.00
54308;BME280;40208;39.778;2.710;2023-10-09T09:10:30;102362.50;;;21.42;100.00
54308;BME280;40208;39.778;2.710;2023-10-09T09:13:23;102264.63;;;20.96;100.00
54308;BME280;40208;39.778;2.710;2023-10-09T09:16:20;102336.03;;;21.47;100.00
54308;BME280;40208;39.778;2.710;2023-10-09T09:19:07;102300.31;;;21.29;100.00
54308;BME280;40208;39.778;2.710;2023-10-09T09:21:57;102355.44;;;21.66;100.00
54308;BME280;40208;39.778;2.710;2023-10-09T09:24:57;102287.66;;;21.29;100.00
54308;BME280;40208;39.778;2.710;2023-10-09T09:27:46;102278.88;;;21.26;100.00
54308;BME280;40208;39.778;2.710;2023-10-09T09:30:37;102303.53;;;21.48;100.00
54308;BME280;40208;39.778;2.710;2023-10-09T09:33:23;102252.00;;;21.24;100.00
54308;BME280;40208;39.778;2.710;2023-10-09T09:36:11;102344.06;;;21.88;100.00
54308;BME280;40208;39.778;2.710;2023-10-09T09:38:57;102302.31;;;21.67;100.00
54308;BME280;40208;39.778;2.710;2023-10-09T09:41:46;102290.41;;;21.69;100.00
54308;BME280;40208;39.778;2.710;2023-10-09T09:44:32;102268.13;;;21.66;100.00
54308;BME280;40208;39.778;2.710;2023-10-09T09:47:28;102285.56;;;21.87;100.00
54308;BME280;40208;39.778;2.710;2023-10-09T09:50:14;102347.31;;;22.33;100.00
54308;BME280;40208;39.778;2.710;2023-10-09T09:53:07;102344.91;;;22.41;100.00
54308;BME280;40208;39.778;2.710;2023-10-09T09:55:54;102339.72;;;22.51;100.00
54308;BME280;40208;39.778;2.710;2023-10-09T09:58:43;102347.50;;;22.56;100.00
54308;BME280;40208;39.778;2.710;2023-10-09T10:01:32;102316.03;;;22.55;100.00
54308;BME280;40208;39.778;2.710;2023-10-09T10:04:19;102296.41;;;22.51;100.00
54308;BME280;40208;39.778;2.710;2023-10-09T10:07:07;102333.09;;;22.68;100.00
54308;BME280;40208;39.778;2.710;2023-10-09T10:09:57;102335.91;;;22.79;100.00
54308;BME280;40208;39.778;2.710;2023-10-09T10:12:51;102300.22;;;22.61;100.00
54308;BME280;40208;39.778;2.710;2023-10-09T10:16:12;102352.25;;;22.91;100.00
54308;BME280;40208;39.778;2.710;2023-10-09T10:19:04;102335.75;;;22.94;100.00
54308;BME280;40208;39.778;2.710;2023-10-09T10:22:29;102323.84;;;22.96;100.00
54308;BME280;40208;39.778;2.710;2023-10-09T10:28:21;102196.59;;;22.35;100.00
54308;BME280;40208;39.778;2.710;2023-10-09T10:31:57;102336.34;;;23.23;100.00
54308;BME280;40208;39.778;2.710;2023-10-09T10:34:54;102338.00;;;23.25;100.00
54308;BME280;40208;39.778;2.710;2023-10-09T10:37:42;102227.78;;;22.65;100.00
54308;BME280;40208;39.778;2.710;2023-10-09T10:40:36;102327.53;;;23.32;100.00
54308;BME280;40208;39.778;2.710;2023-10-09T10:43:25;102317.34;;;23.36;100.00
54308;BME280;40208;39.778;2.710;2023-10-09T10:46:18;102322.78;;;23.36;100.00
54308;BME280;40208;39.778;2.710;2023-10-09T10:49:14;102228.38;;;22.81;100.00
54308;BME280;40208;39.778;2.710;2023-10-09T10:52:00;102300.34;;;23.34;100.00
54308;BME280;40208;39.778;2.710;2023-10-09T10:55:12;102313.31;;;23.41;100.00
54308;BME280;40208;39.778;2.710;2023-10-09T10:58:16;102300.84;;;23.39;100.00
54308;BME280;40208;39.778;2.710;2023-10-09T11:01:07;102253.44;;;23.09;100.00
54308;BME280;40208;39.778;2.710;2023-10-09T11:04:11;102237.06;;;23.11;100.00
54308;BME280;40208;39.778;2.710;2023-10-09T11:07:00;102309.66;;;23.54;100.00
54308;BME280;40208;39.778;2.710;2023-10-09T11:09:55;102221.56;;;23.13;100.00
54308;BME280;40208;39.778;2.710;2023-10-09T11:12:46;102216.03;;;23.14;100.00
54308;BME280;40208;39.778;2.710;2023-10-09T11:15:39;102252.31;;;23.36;100.00
54308;BME280;40208;39.778;2.710;2023-10-09T11:18:39;102196.66;;;23.07;100.00
54308;BME280;40208;39.778;2.710;2023-10-09T11:21:27;102214.94;;;23.17;100.00
54308;BME280;40208;39.778;2.710;2023-10-09T11:24:28;102232.84;;;23.31;100.00
54308;BME280;40208;39.778;2.710;2023-10-09T11:27:18;102206.47;;;23.21;100.00
54308;BME280;40208;39.778;2.710;2023-10-09T11:30:05;102285.50;;;23.75;100.00
54308;BME280;40208;39.778;2.710;2023-10-09T11:33:07;102286.00;;;23.80;100.00
54308;BME280;40208;39.778;2.710;2023-10-09T11:35:58;102279.13;;;23.87;100.00
54308;BME280;40208;39.778;2.710;2023-10-09T11:38:43;102279.13;;;23.87;100.00
54308;BME280;40208;39.778;2.710;2023-10-09T11:41:30;102209.28;;;23.55;100.00
54308;BME280;40208;39.778;2.710;2023-10-09T11:44:42;102251.13;;;23.75;100.00
54308;BME280;40208;39.778;2.710;2023-10-09T11:47:39;102208.56;;;23.64;100.00
54308;BME280;40208;39.778;2.710;2023-10-09T11:50:41;102257.72;;;23.95;100.00
54308;BME280;40208;39.778;2.710;2023-10-09T11:53:27;102154.53;;;23.39;100.00
54308;BME280;40208;39.778;2.710;2023-10-09T11:56:12;102149.63;;;23.44;100.00
54308;BME280;40208;39.778;2.710;2023-10-09T11:59:04;102231.34;;;24.08;100.00
54308;BME280;40208;39.778;2.710;2023-10-09T12:01:50;102233.81;;;24.11;100.00
54308;BME280;40208;39.778;2.710;2023-10-09T12:04:38;102102.59;;;23.45;100.00
54308;BME280;40208;39.778;2.710;2023-10-09T12:07:26;102227.66;;;24.21;100.00
54308;BME280;40208;39.778;2.710;2023-10-09T12:10:12;102244.69;;;24.23;100.00
54308;BME280;40208;39.778;2.710;2023-10-09T12:12:58;102228.41;;;24.23;100.00
54308;BME280;40208;39.778;2.710;2023-10-09T12:15:43;102223.69;;;24.25;100.00
54308;BME280;40208;39.778;2.710;2023-10-09T12:18:31;102219.38;;;24.22;100.00
54308;BME280;40208;39.778;2.710;2023-10-09T12:21:20;102204.22;;;24.20;100.00
54308;BME280;40208;39.778;2.710;2023-10-09T12:24:05;102155.50;;;23.96;100.00
54308;BME280;40208;39.778;2.710;2023-10-09T12:26:56;102219.00;;;24.38;100.00
54308;BME280;40208;39.778;2.710;2023-10-09T12:29:41;102136.91;;;23.91;100.00
54308;BME280;40208;39.778;2.710;2023-10-09T12:32:29;102181.28;;;24.12;100.00
54308;BME280;40208;39.778;2.710;2023-10-09T12:35:13;102221.34;;;24.43;100.00
54308;BME280;40208;39.778;2.710;2023-10-09T12:38:02;102230.72;;;24.39;100.00
54308;BME280;40208;39.778;2.710;2023-10-09T12:40:47;102224.44;;;24.38;100.00
54308;BME280;40208;39.778;2.710;2023-10-09T12:43:37;102201.63;;;24.29;100.00
54308;BME280;40208;39.778;2.710;2023-10-09T12:46:22;102221.59;;;24.40;100.00
54308;BME280;40208;39.778;2.710;2023-10-09T12:49:07;102213.09;;;24.44;100.00
54308;BME280;40208;39.778;2.710;2023-10-09T12:51:53;102151.44;;;24.01;100.00
54308;BME280;40208;39.778;2.710;2023-10-09T12:54:38;102214.44;;;24.39;100.00
54308;BME280;40208;39.778;2.710;2023-10-09T12:57:23;102119.03;;;23.88;100.00
54308;BME280;40208;39.778;2.710;2023-10-09T13:00:08;102213.47;;;24.51;100.00
54308;BME280;40208;39.778;2.710;2023-10-09T13:02:56;102215.94;;;24.54;100.00
54308;BME280;40208;39.778;2.710;2023-10-09T13:05:41;102139.13;;;24.08;100.00
54308;BME280;40208;39.778;2.710;2023-10-09T13:08:36;102204.09;;;24.55;100.00
54308;BME280;40208;39.778;2.710;2023-10-09T13:11:25;102107.19;;;24.01;100.00
54308;BME280;40208;39.778;2.710;2023-10-09T13:14:10;102201.84;;;24.60;100.00
54308;BME280;40208;39.778;2.710;2023-10-09T13:17:02;102163.03;;;24.37;100.00
54308;BME280;40208;39.778;2.710;2023-10-09T13:19:54;102141.44;;;24.24;100.00
54308;BME280;40208;39.778;2.710;2023-10-09T13:22:41;102195.84;;;24.57;100.00
54308;BME280;40208;39.778;2.710;2023-10-09T13:25:25;102195.59;;;24.48;100.00
54308;BME280;40208;39.778;2.710;2023-10-09T13:28:18;102117.53;;;24.07;100.00
54308;BME280;40208;39.778;2.710;2023-10-09T13:31:05;102120.63;;;24.02;100.00
54308;BME280;40208;39.778;2.710;2023-10-09T13:33:49;102206.59;;;24.47;100.00
54308;BME280;40208;39.778;2.710;2023-10-09T13:36:39;102146.75;;;24.15;100.00
54308;BME280;40208;39.778;2.710;2023-10-09T13:39:24;102138.38;;;24.06;100.00
54308;BME280;40208;39.778;2.710;2023-10-09T13:42:12;102170.53;;;24.22;100.00
54308;BME280;40208;39.778;2.710;2023-10-09T13:44:56;102167.09;;;24.20;100.00
54308;BME280;40208;39.778;2.710;2023-10-09T13:47:42;102180.16;;;24.26;100.00
54308;BME280;40208;39.778;2.710;2023-10-09T13:50:29;102190.53;;;24.21;100.00
54308;BME280;40208;39.778;2.710;2023-10-09T13:53:17;102134.19;;;23.91;100.00
54308;BME280;40208;39.778;2.710;2023-10-09T13:56:02;102174.84;;;24.25;100.00
54308;BME280;40208;39.778;2.710;2023-10-09T13:58:51;102172.66;;;24.19;100.00
54308;BME280;40208;39.778;2.710;2023-10-09T14:01:37;102017.34;;;23.38;100.00
54308;BME280;40208;39.778;2.710;2023-10-09T14:04:23;102156.84;;;24.24;100.00
54308;BME280;40208;39.778;2.710;2023-10-09T14:07:08;102157.22;;;24.30;100.00
54308;BME280;40208;39.778;2.710;2023-10-09T14:09:53;102111.50;;;24.15;100.00
54308;BME280;40208;39.778;2.710;2023-10-09T14:12:51;102088.84;;;23.93;100.00
54308;BME280;40208;39.778;2.710;2023-10-09T14:15:38;102147.22;;;24.31;100.00
54308;BME280;40208;39.778;2.710;2023-10-09T14:18:25;102159.66;;;24.45;100.00
54308;BME280;40208;39.778;2.710;2023-10-09T14:21:14;102133.66;;;24.20;100.00
54308;BME280;40208;39.778;2.710;2023-10-09T14:24:01;102159.31;;;24.38;100.00
54308;BME280;40208;39.778;2.710;2023-10-09T14:26:45;102157.09;;;24.32;100.00
54308;BME280;40208;39.778;2.710;2023-10-09T14:29:31;102079.22;;;23.89;100.00
54308;BME280;40208;39.778;2.710;2023-10-09T14:32:16;102061.22;;;23.77;100.00
54308;BME280;40208;39.778;2.710;2023-10-09T14:35:01;102155.63;;;24.28;100.00
54308;BME280;40208;39.778;2.710;2023-10-09T14:37:45;102076.13;;;23.82;100.00
54308;BME280;40208;39.778;2.710;2023-10-09T14:40:30;102165.75;;;24.26;100.00
54308;BME280;40208;39.778;2.710;2023-10-09T14:43:16;102057.50;;;23.66;100.00
54308;BME280;40208;39.778;2.710;2023-10-09T14:46:03;102156.84;;;24.24;100.00
54308;BME280;40208;39.778;2.710;2023-10-09T14:48:55;102122.97;;;24.07;100.00